createdAt,value
2018-07-25T00:00:09.855Z,26.44
2018-07-25T00:00:50.373Z,26.37
2018-07-25T00:01:30.877Z,26.35
2018-07-25T00:02:11.407Z,26.32
2018-07-25T00:02:51.911Z,26.35
2018-07-25T00:03:32.427Z,26.32
2018-07-25T00:04:12.922Z,26.43
2018-07-25T00:04:53.385Z,26.4
2018-07-25T00:05:33.892Z,26.4
2018-07-25T00:06:14.356Z,26.43
2018-07-25T00:06:54.874Z,26.33
2018-07-25T00:07:35.359Z,26.32
2018-07-25T00:08:15.854Z,26.09
2018-07-25T00:08:56.358Z,26.15
2018-07-25T00:09:36.886Z,26.17
2018-07-25T00:10:17.346Z,26.18
2018-07-25T00:10:57.913Z,26.32
2018-07-25T00:11:38.395Z,26.23
2018-07-25T00:12:18.933Z,26.12
2018-07-25T00:12:59.424Z,26.28
2018-07-25T00:13:39.993Z,26.18
2018-07-25T00:14:20.442Z,26.17
2018-07-25T00:15:00.918Z,26.28
2018-07-25T00:15:41.428Z,26.2
2018-07-25T00:16:21.944Z,26.3
2018-07-25T00:17:02.426Z,26.3
2018-07-25T00:17:42.950Z,26.23
2018-07-25T00:18:23.432Z,26.28
2018-07-25T00:19:04.038Z,26.3
2018-07-25T00:19:44.468Z,26.32
2018-07-25T00:20:25.011Z,26.29
2018-07-25T00:21:05.524Z,26.29
2018-07-25T00:21:45.979Z,26.4
2018-07-25T00:22:26.488Z,26.36
2018-07-25T00:23:06.996Z,26.33
2018-07-25T00:23:47.451Z,26.36
2018-07-25T00:24:28.023Z,26.32
2018-07-25T00:25:08.513Z,26.29
2018-07-25T00:25:48.980Z,26.25
2018-07-25T00:26:29.488Z,26.17
2018-07-25T00:27:10.004Z,26.26
2018-07-25T00:27:50.460Z,26.26
2018-07-25T00:28:30.961Z,26.29
2018-07-25T00:29:11.548Z,26.35
2018-07-25T00:29:52.061Z,26.36
2018-07-25T00:30:32.509Z,26.33
2018-07-25T00:31:13.058Z,26.39
2018-07-25T00:31:53.489Z,26.36
2018-07-25T00:32:33.991Z,26.2
2018-07-25T00:33:14.501Z,26.26
2018-07-25T00:33:55.030Z,26.21
2018-07-25T00:34:35.519Z,26.15
2018-07-25T00:35:15.977Z,26.15
2018-07-25T00:35:56.509Z,26.18
2018-07-25T00:36:36.957Z,26.21
2018-07-25T00:37:17.454Z,26.2
2018-07-25T00:37:57.950Z,26.28
2018-07-25T00:38:38.440Z,26.2
2018-07-25T00:39:18.945Z,26.2
2018-07-25T00:39:59.419Z,26.32
2018-07-25T00:40:39.919Z,26.26
2018-07-25T00:41:20.430Z,26.2
2018-07-25T00:42:00.929Z,26.21
2018-07-25T00:42:41.438Z,26.23
2018-07-25T00:43:21.873Z,26.17
2018-07-25T00:44:02.420Z,26.17
2018-07-25T00:44:42.937Z,26.13
2018-07-25T00:45:23.341Z,26.15
2018-07-25T00:46:03.861Z,26.13
2018-07-25T00:46:44.342Z,26.2
2018-07-25T00:47:24.882Z,26.13
2018-07-25T00:48:05.370Z,26.15
2018-07-25T00:48:45.947Z,26.1
2018-07-25T00:49:26.452Z,26.13
2018-07-25T00:50:06.908Z,26.25
2018-07-25T00:50:47.416Z,26.2
2018-07-25T00:51:28.899Z,26.13
2018-07-25T00:52:09.446Z,26.18
2018-07-25T00:52:49.926Z,26.28
2018-07-25T00:53:30.462Z,26.26
2018-07-25T00:54:10.913Z,26.21
2018-07-25T00:54:51.453Z,26.21
2018-07-25T00:55:32.007Z,26.05
2018-07-25T00:56:12.632Z,26.09
2018-07-25T00:56:53.176Z,26.23
2018-07-25T00:57:33.653Z,26.06
2018-07-25T00:58:14.198Z,26.21
2018-07-25T00:58:54.658Z,26.07
2018-07-25T00:59:35.120Z,25.94
2018-07-25T01:00:15.658Z,26.01
2018-07-25T01:00:56.165Z,25.94
2018-07-25T01:01:36.705Z,25.9
2018-07-25T01:02:17.180Z,25.94
2018-07-25T01:02:57.693Z,25.94
2018-07-25T01:03:38.246Z,26.06
2018-07-25T01:04:18.668Z,26.01
2018-07-25T01:04:59.156Z,26.01
2018-07-25T01:05:39.692Z,26.07
2018-07-25T01:06:20.124Z,26.05
2018-07-25T01:07:00.650Z,25.98
2018-07-25T01:07:41.135Z,26.02
2018-07-25T01:08:21.668Z,26.05
2018-07-25T01:09:02.164Z,25.97
2018-07-25T01:09:42.667Z,26.07
2018-07-25T01:10:23.140Z,25.92
2018-07-25T01:11:03.664Z,25.92
2018-07-25T01:11:44.168Z,25.92
2018-07-25T01:12:24.739Z,26.05
2018-07-25T01:13:05.225Z,25.92
2018-07-25T01:13:45.710Z,25.97
2018-07-25T01:14:26.205Z,25.88
2018-07-25T01:15:06.664Z,25.9
2018-07-25T01:15:47.359Z,25.91
2018-07-25T01:16:27.708Z,25.9
2018-07-25T01:17:08.174Z,25.9
2018-07-25T01:17:48.704Z,25.91
2018-07-25T01:18:29.199Z,25.95
2018-07-25T01:19:09.691Z,25.87
2018-07-25T01:19:50.264Z,25.91
2018-07-25T01:20:30.735Z,25.91
2018-07-25T01:21:11.244Z,25.97
2018-07-25T01:21:51.754Z,25.88
2018-07-25T01:22:32.247Z,26.01
2018-07-25T01:23:12.777Z,25.95
2018-07-25T01:23:53.379Z,26.02
2018-07-25T01:24:33.896Z,26.05
2018-07-25T01:25:14.397Z,26.01
2018-07-25T01:25:54.879Z,26.02
2018-07-25T01:26:35.349Z,26.05
2018-07-25T01:27:15.900Z,25.91
2018-07-25T01:27:56.391Z,25.88
2018-07-25T01:28:36.890Z,25.87
2018-07-25T01:29:18.427Z,25.88
2018-07-25T01:29:58.932Z,25.91
2018-07-25T01:30:39.425Z,25.92
2018-07-25T01:31:19.871Z,25.9
2018-07-25T01:32:00.390Z,25.88
2018-07-25T01:32:40.905Z,25.82
2018-07-25T01:33:21.473Z,25.91
2018-07-25T01:34:01.949Z,25.92
2018-07-25T01:34:42.454Z,25.92
2018-07-25T01:35:23.015Z,25.94
2018-07-25T01:36:03.470Z,25.91
2018-07-25T01:36:43.946Z,25.91
2018-07-25T01:37:24.423Z,25.88
2018-07-25T01:38:04.940Z,25.77
2018-07-25T01:38:45.415Z,25.85
2018-07-25T01:39:25.946Z,25.9
2018-07-25T01:40:06.403Z,25.87
2018-07-25T01:40:46.878Z,25.9
2018-07-25T01:41:27.439Z,25.9
2018-07-25T01:42:07.929Z,25.88
2018-07-25T01:42:48.407Z,25.8
2018-07-25T01:43:28.867Z,25.79
2018-07-25T01:44:09.422Z,25.76
2018-07-25T01:44:49.948Z,25.72
2018-07-25T01:45:30.404Z,25.76
2018-07-25T01:46:10.915Z,25.8
2018-07-25T01:46:51.461Z,25.73
2018-07-25T01:47:31.903Z,25.61
2018-07-25T01:48:12.449Z,25.61
2018-07-25T01:48:52.925Z,25.62
2018-07-25T01:49:33.457Z,25.7
2018-07-25T01:50:13.894Z,25.72
2018-07-25T01:50:54.416Z,25.73
2018-07-25T01:51:34.928Z,25.73
2018-07-25T01:52:15.435Z,25.69
2018-07-25T01:52:55.963Z,25.67
2018-07-25T01:53:36.459Z,25.73
2018-07-25T01:54:16.940Z,25.7
2018-07-25T01:54:57.459Z,25.79
2018-07-25T01:55:38.134Z,25.69
2018-07-25T01:56:18.593Z,25.67
2018-07-25T01:56:59.061Z,25.72
2018-07-25T01:57:39.593Z,25.62
2018-07-25T01:58:20.045Z,25.62
2018-07-25T01:59:00.543Z,25.67
2018-07-25T01:59:41.007Z,25.67
2018-07-25T02:00:21.520Z,25.7
2018-07-25T02:01:01.966Z,25.64
2018-07-25T02:01:42.499Z,25.67
2018-07-25T02:02:22.991Z,25.51
2018-07-25T02:03:03.499Z,25.61
2018-07-25T02:03:44.065Z,25.6
2018-07-25T02:04:24.534Z,25.67
2018-07-25T02:05:05.085Z,25.62
2018-07-25T02:05:45.530Z,25.64
2018-07-25T02:06:25.992Z,25.61
2018-07-25T02:07:06.529Z,25.58
2018-07-25T02:07:47.113Z,25.42
2018-07-25T02:08:27.602Z,25.43
2018-07-25T02:09:08.108Z,25.33
2018-07-25T02:09:48.567Z,25.46
2018-07-25T02:10:29.092Z,25.46
2018-07-25T02:11:09.549Z,25.43
2018-07-25T02:11:50.107Z,25.45
2018-07-25T02:12:30.583Z,25.46
2018-07-25T02:13:11.127Z,25.46
2018-07-25T02:13:51.605Z,25.54
2018-07-25T02:14:32.079Z,25.46
2018-07-25T02:15:12.705Z,25.57
2018-07-25T02:15:53.216Z,25.64
2018-07-25T02:16:33.715Z,25.62
2018-07-25T02:17:14.193Z,25.64
2018-07-25T02:17:54.722Z,25.61
2018-07-25T02:18:35.215Z,25.52
2018-07-25T02:19:15.706Z,25.55
2018-07-25T02:19:56.287Z,25.55
2018-07-25T02:20:36.752Z,25.57
2018-07-25T02:21:17.266Z,25.5
2018-07-25T02:21:57.862Z,25.57
2018-07-25T02:22:38.288Z,25.57
2018-07-25T02:23:18.802Z,25.5
2018-07-25T02:23:59.334Z,25.4
2018-07-25T02:24:39.803Z,25.5
2018-07-25T02:25:20.336Z,25.52
2018-07-25T02:26:00.898Z,25.55
2018-07-25T02:26:41.375Z,25.47
2018-07-25T02:27:21.893Z,25.45
2018-07-25T02:28:02.429Z,25.43
2018-07-25T02:28:42.944Z,25.42
2018-07-25T02:29:23.379Z,25.46
2018-07-25T02:30:03.925Z,25.45
2018-07-25T02:30:44.392Z,25.54
2018-07-25T02:31:24.869Z,25.55
2018-07-25T02:32:05.383Z,25.47
2018-07-25T02:32:45.902Z,25.5
2018-07-25T02:33:26.384Z,25.43
2018-07-25T02:34:06.896Z,25.32
2018-07-25T02:34:47.378Z,25.42
2018-07-25T02:35:27.900Z,25.4
2018-07-25T02:36:08.393Z,25.46
2018-07-25T02:36:48.879Z,25.45
2018-07-25T02:37:29.402Z,25.46
2018-07-25T02:38:09.891Z,25.42
2018-07-25T02:38:50.343Z,25.45
2018-07-25T02:39:30.872Z,25.46
2018-07-25T02:40:11.295Z,25.57
2018-07-25T02:40:51.769Z,25.46
2018-07-25T02:41:32.243Z,25.57
2018-07-25T02:42:12.807Z,25.54
2018-07-25T02:42:53.418Z,25.52
2018-07-25T02:43:33.861Z,25.51
2018-07-25T02:44:14.397Z,25.46
2018-07-25T02:44:54.877Z,25.46
2018-07-25T02:45:35.413Z,25.5
2018-07-25T02:46:15.886Z,25.45
2018-07-25T02:46:56.413Z,25.55
2018-07-25T02:47:36.881Z,25.51
2018-07-25T02:48:17.383Z,25.47
2018-07-25T02:48:57.885Z,25.46
2018-07-25T02:49:38.401Z,25.54
2018-07-25T02:50:18.884Z,25.57
2018-07-25T02:50:59.398Z,25.54
2018-07-25T02:51:39.895Z,25.5
2018-07-25T02:52:20.359Z,25.55
2018-07-25T02:53:00.914Z,25.54
2018-07-25T02:53:41.417Z,25.33
2018-07-25T02:54:21.938Z,25.32
2018-07-25T02:55:02.417Z,25.45
2018-07-25T02:55:42.891Z,25.4
2018-07-25T02:56:23.383Z,25.38
2018-07-25T02:57:04.072Z,25.36
2018-07-25T02:57:44.409Z,25.33
2018-07-25T02:58:24.871Z,25.32
2018-07-25T02:59:05.414Z,25.32
2018-07-25T02:59:45.870Z,25.32
2018-07-25T03:00:26.404Z,25.33
2018-07-25T03:01:06.977Z,25.33
2018-07-25T03:01:47.476Z,25.3
2018-07-25T03:02:27.936Z,25.33
2018-07-25T03:03:08.449Z,25.39
2018-07-25T03:03:48.924Z,25.28
2018-07-25T03:04:29.410Z,25.3
2018-07-25T03:05:09.942Z,25.21
2018-07-25T03:05:50.422Z,25.28
2018-07-25T03:06:30.960Z,25.3
2018-07-25T03:07:11.436Z,25.2
2018-07-25T03:07:51.905Z,25.33
2018-07-25T03:08:32.416Z,25.21
2018-07-25T03:09:12.894Z,25.17
2018-07-25T03:09:53.406Z,25.24
2018-07-25T03:10:33.916Z,25.21
2018-07-25T03:11:14.393Z,25.18
2018-07-25T03:11:54.900Z,25.23
2018-07-25T03:12:35.378Z,25.28
2018-07-25T03:13:15.862Z,25.2
2018-07-25T03:13:56.376Z,25.24
2018-07-25T03:14:36.849Z,25.21
2018-07-25T03:15:17.596Z,25.21
2018-07-25T03:15:58.106Z,25.13
2018-07-25T03:16:38.640Z,25.14
2018-07-25T03:17:19.069Z,25.13
2018-07-25T03:17:59.571Z,25.14
2018-07-25T03:18:40.074Z,25.09
2018-07-25T03:19:20.566Z,25.14
2018-07-25T03:20:01.077Z,25.06
2018-07-25T03:20:41.584Z,25.03
2018-07-25T03:21:22.089Z,25.1
2018-07-25T03:22:02.560Z,25.03
2018-07-25T03:22:43.038Z,25.03
2018-07-25T03:23:23.550Z,25.05
2018-07-25T03:24:04.027Z,25.02
2018-07-25T03:24:44.543Z,25.1
2018-07-25T03:25:24.966Z,25.09
2018-07-25T03:26:05.496Z,25.08
2018-07-25T03:26:45.989Z,25.13
2018-07-25T03:27:26.464Z,25.14
2018-07-25T03:28:07.021Z,25.17
2018-07-25T03:28:47.528Z,25.08
2018-07-25T03:29:27.950Z,25
2018-07-25T03:30:08.497Z,25
2018-07-25T03:30:49.033Z,25.08
2018-07-25T03:31:29.618Z,25
2018-07-25T03:32:09.956Z,24.88
2018-07-25T03:32:50.486Z,24.95
2018-07-25T03:33:31.041Z,24.9
2018-07-25T03:34:11.589Z,24.95
2018-07-25T03:34:52.028Z,24.93
2018-07-25T03:35:32.558Z,24.87
2018-07-25T03:36:13.114Z,24.9
2018-07-25T03:36:53.588Z,24.98
2018-07-25T03:37:34.245Z,24.95
2018-07-25T03:38:14.658Z,25.06
2018-07-25T03:38:55.097Z,24.9
2018-07-25T03:39:35.622Z,24.83
2018-07-25T03:40:16.113Z,24.9
2018-07-25T03:40:56.641Z,24.88
2018-07-25T03:41:37.158Z,24.83
2018-07-25T03:42:17.748Z,24.87
2018-07-25T03:42:58.121Z,24.85
2018-07-25T03:43:38.624Z,24.87
2018-07-25T03:44:19.131Z,24.91
2018-07-25T03:44:59.628Z,24.88
2018-07-25T03:45:40.103Z,24.88
2018-07-25T03:46:20.596Z,24.84
2018-07-25T03:47:01.110Z,24.93
2018-07-25T03:47:41.679Z,24.88
2018-07-25T03:48:22.318Z,24.83
2018-07-25T03:49:02.799Z,24.8
2018-07-25T03:49:43.361Z,24.87
2018-07-25T03:50:23.864Z,24.81
2018-07-25T03:51:04.312Z,24.8
2018-07-25T03:51:44.875Z,24.8
2018-07-25T03:52:25.314Z,24.77
2018-07-25T03:53:05.790Z,24.81
2018-07-25T03:53:46.340Z,24.85
2018-07-25T03:54:26.769Z,24.85
2018-07-25T03:55:07.275Z,24.91
2018-07-25T03:55:47.751Z,24.73
2018-07-25T03:56:28.267Z,24.77
2018-07-25T03:57:08.755Z,24.73
2018-07-25T03:57:49.289Z,24.76
2018-07-25T03:58:29.779Z,24.87
2018-07-25T03:59:10.243Z,24.87
2018-07-25T03:59:50.688Z,24.9
2018-07-25T04:00:31.228Z,24.88
2018-07-25T04:01:11.814Z,24.9
2018-07-25T04:01:52.262Z,24.99
2018-07-25T04:02:32.791Z,24.99
2018-07-25T04:03:13.269Z,24.95
2018-07-25T04:03:53.747Z,24.95
2018-07-25T04:04:34.250Z,24.96
2018-07-25T04:05:15.069Z,25.02
2018-07-25T04:05:55.687Z,24.9
2018-07-25T04:06:36.187Z,24.99
2018-07-25T04:07:16.629Z,25.05
2018-07-25T04:07:57.134Z,25.09
2018-07-25T04:08:37.646Z,25.13
2018-07-25T04:09:18.203Z,25.09
2018-07-25T04:09:58.625Z,25.14
2018-07-25T04:10:39.144Z,25.2
2018-07-25T04:11:20.089Z,25.14
2018-07-25T04:12:00.579Z,25.23
2018-07-25T04:12:41.109Z,25.13
2018-07-25T04:13:21.592Z,25.1
2018-07-25T04:14:02.093Z,25.13
2018-07-25T04:14:43.317Z,25.09
2018-07-25T04:15:23.803Z,25.09
2018-07-25T04:16:04.289Z,25.14
2018-07-25T04:16:44.752Z,25.17
2018-07-25T04:17:25.283Z,25.21
2018-07-25T04:18:05.750Z,25.1
2018-07-25T04:18:46.462Z,25.15
2018-07-25T04:19:26.957Z,25.27
2018-07-25T04:20:07.492Z,25.25
2018-07-25T04:20:47.960Z,25.2
2018-07-25T04:21:28.464Z,25.3
2018-07-25T04:22:09.017Z,25.2
2018-07-25T04:22:49.464Z,25.14
2018-07-25T04:23:29.954Z,25.28
2018-07-25T04:24:10.487Z,25.23
2018-07-25T04:24:50.960Z,25.35
2018-07-25T04:25:31.493Z,25.3
2018-07-25T04:26:12.004Z,25.38
2018-07-25T04:26:52.458Z,25.3
2018-07-25T04:27:32.939Z,25.27
2018-07-25T04:28:13.447Z,25.28
2018-07-25T04:28:55.705Z,25.27
2018-07-25T04:29:36.233Z,25.33
2018-07-25T04:30:16.697Z,25.33
2018-07-25T04:30:57.208Z,25.35
2018-07-25T04:31:37.691Z,25.3
2018-07-25T04:32:18.182Z,25.35
2018-07-25T04:32:58.695Z,25.33
2018-07-25T04:33:39.178Z,25.42
2018-07-25T04:34:19.691Z,25.42
2018-07-25T04:35:00.221Z,25.5
2018-07-25T04:35:40.736Z,25.47
2018-07-25T04:36:21.258Z,25.64
2018-07-25T04:37:01.670Z,25.64
2018-07-25T04:37:42.177Z,25.76
2018-07-25T04:38:22.658Z,25.67
2018-07-25T04:39:03.123Z,25.73
2018-07-25T04:39:43.637Z,25.72
2018-07-25T04:40:24.141Z,25.72
2018-07-25T04:41:04.615Z,25.67
2018-07-25T04:41:45.111Z,25.76
2018-07-25T04:42:25.610Z,25.79
2018-07-25T04:43:06.046Z,25.77
2018-07-25T04:43:46.633Z,25.75
2018-07-25T04:44:27.126Z,25.82
2018-07-25T04:45:07.611Z,25.79
2018-07-25T04:45:48.168Z,25.82
2018-07-25T04:46:28.668Z,25.85
2018-07-25T04:47:09.130Z,25.82
2018-07-25T04:47:49.687Z,25.65
2018-07-25T04:48:30.123Z,25.67
2018-07-25T04:49:10.662Z,25.65
2018-07-25T04:49:51.195Z,25.62
2018-07-25T04:50:31.704Z,25.51
2018-07-25T04:51:12.175Z,25.64
2018-07-25T04:51:52.836Z,25.69
2018-07-25T04:52:33.525Z,25.61
2018-07-25T04:53:14.031Z,25.64
2018-07-25T04:53:54.578Z,25.76
2018-07-25T04:54:35.059Z,25.79
2018-07-25T04:55:15.584Z,25.8
2018-07-25T04:55:56.104Z,25.88
2018-07-25T04:56:36.578Z,25.76
2018-07-25T04:57:17.107Z,25.87
2018-07-25T04:57:57.823Z,25.88
2018-07-25T04:58:38.286Z,25.99
2018-07-25T04:59:18.779Z,25.9
2018-07-25T04:59:59.409Z,25.92
2018-07-25T05:00:39.907Z,25.97
2018-07-25T05:01:20.429Z,26.02
2018-07-25T05:02:00.886Z,25.97
2018-07-25T05:02:41.485Z,26.06
2018-07-25T05:03:22.023Z,26.02
2018-07-25T05:04:02.592Z,26.06
2018-07-25T05:04:43.220Z,25.99
2018-07-25T05:05:23.852Z,26.01
2018-07-25T05:06:04.315Z,26.07
2018-07-25T05:06:44.818Z,26.12
2018-07-25T05:07:25.332Z,26.12
2018-07-25T05:08:05.938Z,25.98
2018-07-25T05:08:46.350Z,25.98
2018-07-25T05:09:26.873Z,26.05
2018-07-25T05:10:07.413Z,25.76
2018-07-25T05:10:47.878Z,25.85
2018-07-25T05:11:28.366Z,25.91
2018-07-25T05:12:08.875Z,25.91
2018-07-25T05:12:49.392Z,26.17
2018-07-25T05:13:29.870Z,26.12
2018-07-25T05:14:10.347Z,26.15
2018-07-25T05:14:50.840Z,26.17
2018-07-25T05:15:31.373Z,26.06
2018-07-25T05:16:11.834Z,26.02
2018-07-25T05:16:52.416Z,26.06
2018-07-25T05:17:32.869Z,26.02
2018-07-25T05:18:16.165Z,26.07
2018-07-25T05:18:56.687Z,26.15
2018-07-25T05:19:37.165Z,26.01
2018-07-25T05:20:17.660Z,26.01
2018-07-25T05:20:58.149Z,26.01
2018-07-25T05:21:38.673Z,26.02
2018-07-25T05:22:19.173Z,26.13
2018-07-25T05:22:59.697Z,25.99
2018-07-25T05:23:40.202Z,26.09
2018-07-25T05:24:20.712Z,26.01
2018-07-25T05:25:01.236Z,26.09
2018-07-25T05:25:41.774Z,26.13
2018-07-25T05:26:22.281Z,26.06
2018-07-25T05:27:02.788Z,26.17
2018-07-25T05:27:43.305Z,26.01
2018-07-25T05:28:23.872Z,26.06
2018-07-25T05:29:04.357Z,26.06
2018-07-25T05:29:44.900Z,25.97
2018-07-25T05:30:25.398Z,26.12
2018-07-25T05:31:05.923Z,26.1
2018-07-25T05:31:46.373Z,26.17
2018-07-25T05:32:26.938Z,26.12
2018-07-25T05:33:07.481Z,26.15
2018-07-25T05:33:47.944Z,26.09
2018-07-25T05:34:28.479Z,26.1
2018-07-25T05:35:09.002Z,26.17
2018-07-25T05:35:49.424Z,26.13
2018-07-25T05:36:30.022Z,26.12
2018-07-25T05:37:10.507Z,26.2
2018-07-25T05:37:50.994Z,26.23
2018-07-25T05:38:31.449Z,26.32
2018-07-25T05:39:11.994Z,26.33
2018-07-25T05:39:52.469Z,26.39
2018-07-25T05:40:33.032Z,26.36
2018-07-25T05:41:13.479Z,26.37
2018-07-25T05:41:53.975Z,26.33
2018-07-25T05:42:34.479Z,26.33
2018-07-25T05:43:15.035Z,26.39
2018-07-25T05:43:55.569Z,26.37
2018-07-25T05:44:35.971Z,26.36
2018-07-25T05:45:16.516Z,26.36
2018-07-25T05:45:57.028Z,26.36
2018-07-25T05:46:37.562Z,26.39
2018-07-25T05:47:18.061Z,26.43
2018-07-25T05:47:58.563Z,26.4
2018-07-25T05:48:39.073Z,26.44
2018-07-25T05:49:19.646Z,26.37
2018-07-25T05:50:00.137Z,26.47
2018-07-25T05:50:40.693Z,26.55
2018-07-25T05:51:21.109Z,26.47
2018-07-25T05:52:01.621Z,26.52
2018-07-25T05:52:42.103Z,26.51
2018-07-25T05:53:22.642Z,26.58
2018-07-25T05:54:03.121Z,26.6
2018-07-25T05:54:43.730Z,26.52
2018-07-25T05:55:24.177Z,26.7
2018-07-25T05:56:04.705Z,26.73
2018-07-25T05:56:45.232Z,26.81
2018-07-25T05:57:25.748Z,26.84
2018-07-25T05:58:06.225Z,26.92
2018-07-25T05:58:46.802Z,26.89
2018-07-25T05:59:27.279Z,27.06
2018-07-25T06:00:07.782Z,27.09
2018-07-25T06:00:48.291Z,27.25
2018-07-25T06:01:28.793Z,27.43
2018-07-25T06:02:09.286Z,27.5
2018-07-25T06:02:49.886Z,27.6
2018-07-25T06:03:30.360Z,27.74
2018-07-25T06:04:10.886Z,27.77
2018-07-25T06:04:51.364Z,27.9
2018-07-25T06:05:31.896Z,28.02
2018-07-25T06:06:12.434Z,28.09
2018-07-25T06:06:52.897Z,28.09
2018-07-25T06:07:33.411Z,28.18
2018-07-25T06:08:13.876Z,28.19
2018-07-25T06:08:54.391Z,28.27
2018-07-25T06:09:34.884Z,28.31
2018-07-25T06:10:15.377Z,28.43
2018-07-25T06:10:55.888Z,28.46
2018-07-25T06:11:36.381Z,28.64
2018-07-25T06:12:16.917Z,28.66
2018-07-25T06:12:57.425Z,28.76
2018-07-25T06:13:37.949Z,28.86
2018-07-25T06:14:18.545Z,28.89
2018-07-25T06:14:59.005Z,28.96
2018-07-25T06:15:39.465Z,29.04
2018-07-25T06:16:19.968Z,29.14
2018-07-25T06:17:00.449Z,29.28
2018-07-25T06:17:40.939Z,29.28
2018-07-25T06:18:21.457Z,29.34
2018-07-25T06:19:01.941Z,29.34
2018-07-25T06:19:42.442Z,29.41
2018-07-25T06:20:22.924Z,29.39
2018-07-25T06:21:03.399Z,29.39
2018-07-25T06:21:43.912Z,29.46
2018-07-25T06:22:24.422Z,29.52
2018-07-25T06:23:04.913Z,29.53
2018-07-25T06:23:45.418Z,29.67
2018-07-25T06:24:25.882Z,29.63
2018-07-25T06:25:06.419Z,29.65
2018-07-25T06:25:46.975Z,29.63
2018-07-25T06:26:27.464Z,29.63
2018-07-25T06:27:07.948Z,29.73
2018-07-25T06:27:48.437Z,29.57
2018-07-25T06:28:28.965Z,29.64
2018-07-25T06:29:09.513Z,29.63
2018-07-25T06:29:49.969Z,29.61
2018-07-25T06:30:30.443Z,29.61
2018-07-25T06:31:10.963Z,29.65
2018-07-25T06:31:51.509Z,29.61
2018-07-25T06:32:31.983Z,29.52
2018-07-25T06:33:12.491Z,29.57
2018-07-25T06:33:52.980Z,29.57
2018-07-25T06:34:33.531Z,29.6
2018-07-25T06:35:14.032Z,29.63
2018-07-25T06:35:54.550Z,29.65
2018-07-25T06:36:35.039Z,29.63
2018-07-25T06:37:15.501Z,29.6
2018-07-25T06:37:56.072Z,29.52
2018-07-25T06:38:36.543Z,29.49
2018-07-25T06:39:17.009Z,29.51
2018-07-25T06:39:57.550Z,29.57
2018-07-25T06:40:37.992Z,29.63
2018-07-25T06:41:18.550Z,29.53
2018-07-25T06:41:59.044Z,29.41
2018-07-25T06:42:39.554Z,29.31
2018-07-25T06:43:20.160Z,29.18
2018-07-25T06:44:00.567Z,29.37
2018-07-25T06:44:41.099Z,29.43
2018-07-25T06:45:21.619Z,29.37
2018-07-25T06:46:02.168Z,29.46
2018-07-25T06:46:42.620Z,29.41
2018-07-25T06:47:23.145Z,29.52
2018-07-25T06:48:03.632Z,29.53
2018-07-25T06:48:44.264Z,29.51
2018-07-25T06:49:24.644Z,29.39
2018-07-25T06:50:05.147Z,29.52
2018-07-25T06:50:45.678Z,29.51
2018-07-25T06:51:26.149Z,29.58
2018-07-25T06:52:06.637Z,29.67
2018-07-25T06:52:47.119Z,29.74
2018-07-25T06:53:27.605Z,29.74
2018-07-25T06:54:08.122Z,29.83
2018-07-25T06:54:48.635Z,29.97
2018-07-25T06:55:29.192Z,30
2018-07-25T06:56:09.747Z,30.04
2018-07-25T06:56:50.407Z,30.08
2018-07-25T06:57:30.845Z,30.1
2018-07-25T06:58:11.352Z,30.16
2018-07-25T06:58:51.853Z,30.22
2018-07-25T06:59:32.379Z,30.19
2018-07-25T07:00:12.873Z,30.29
2018-07-25T07:00:53.369Z,30.2
2018-07-25T07:01:33.900Z,30.22
2018-07-25T07:02:14.435Z,30.31
2018-07-25T07:02:54.975Z,30.38
2018-07-25T07:03:35.495Z,30.35
2018-07-25T07:04:15.944Z,30.39
2018-07-25T07:04:56.474Z,30.45
2018-07-25T07:05:36.996Z,30.55
2018-07-25T07:06:17.507Z,30.53
2018-07-25T07:06:58.106Z,30.54
2018-07-25T07:07:38.508Z,30.57
2018-07-25T07:08:19.109Z,30.64
2018-07-25T07:08:59.759Z,30.7
2018-07-25T07:09:40.263Z,30.67
2018-07-25T07:10:20.744Z,30.61
2018-07-25T07:11:01.279Z,30.72
2018-07-25T07:11:41.745Z,30.69
2018-07-25T07:12:22.265Z,30.69
2018-07-25T07:13:02.722Z,30.64
2018-07-25T07:13:43.220Z,30.7
2018-07-25T07:14:23.755Z,30.75
2018-07-25T07:15:04.280Z,30.76
2018-07-25T07:15:44.762Z,30.62
2018-07-25T07:16:25.241Z,30.67
2018-07-25T07:17:05.746Z,30.77
2018-07-25T07:17:46.305Z,30.89
2018-07-25T07:18:26.753Z,30.89
2018-07-25T07:19:07.277Z,30.99
2018-07-25T07:19:47.753Z,31.02
2018-07-25T07:20:28.235Z,31.02
2018-07-25T07:21:08.747Z,31.01
2018-07-25T07:21:49.269Z,31.1
2018-07-25T07:22:29.739Z,31.06
2018-07-25T07:23:10.206Z,31.04
2018-07-25T07:23:50.726Z,31.04
2018-07-25T07:24:31.198Z,31.04
2018-07-25T07:25:11.700Z,31.04
2018-07-25T07:25:52.232Z,31.07
2018-07-25T07:26:32.637Z,31.02
2018-07-25T07:27:13.181Z,31.04
2018-07-25T07:27:53.673Z,31.01
2018-07-25T07:28:34.170Z,31.09
2018-07-25T07:29:14.648Z,30.99
2018-07-25T07:29:55.169Z,31.04
2018-07-25T07:30:35.713Z,31.01
2018-07-25T07:31:16.201Z,31.1
2018-07-25T07:31:56.696Z,31.13
2018-07-25T07:32:37.174Z,31.12
2018-07-25T07:33:17.693Z,31.12
2018-07-25T07:33:58.212Z,31.1
2018-07-25T07:34:38.735Z,31.06
2018-07-25T07:35:19.261Z,31.17
2018-07-25T07:35:59.740Z,31.21
2018-07-25T07:36:40.294Z,31.2
2018-07-25T07:37:20.824Z,31.19
2018-07-25T07:38:01.256Z,31.21
2018-07-25T07:38:41.710Z,31.17
2018-07-25T07:39:22.247Z,30.89
2018-07-25T07:40:02.729Z,30.88
2018-07-25T07:40:43.240Z,30.89
2018-07-25T07:41:23.737Z,30.75
2018-07-25T07:42:04.207Z,30.88
2018-07-25T07:42:44.987Z,30.94
2018-07-25T07:43:25.515Z,30.98
2018-07-25T07:44:06.078Z,31.02
2018-07-25T07:44:46.550Z,31.12
2018-07-25T07:45:27.027Z,31.06
2018-07-25T07:46:07.525Z,31.12
2018-07-25T07:46:48.077Z,31.2
2018-07-25T07:47:28.523Z,31.01
2018-07-25T07:48:09.013Z,30.97
2018-07-25T07:48:49.511Z,30.91
2018-07-25T07:49:30.071Z,30.91
2018-07-25T07:50:10.605Z,30.97
2018-07-25T07:50:51.092Z,30.94
2018-07-25T07:51:31.556Z,30.98
2018-07-25T07:52:12.062Z,30.99
2018-07-25T07:52:52.583Z,31.04
2018-07-25T07:53:33.090Z,31.02
2018-07-25T07:54:13.621Z,31.07
2018-07-25T07:54:54.112Z,31.12
2018-07-25T07:55:34.626Z,31.16
2018-07-25T07:56:15.111Z,31.31
2018-07-25T07:56:55.659Z,31.41
2018-07-25T07:57:36.153Z,31.43
2018-07-25T07:58:16.631Z,31.35
2018-07-25T07:58:57.148Z,31.39
2018-07-25T07:59:37.648Z,31.41
2018-07-25T08:00:18.108Z,31.43
2018-07-25T08:00:58.598Z,31.44
2018-07-25T08:01:39.096Z,31.36
2018-07-25T08:02:19.575Z,31.41
2018-07-25T08:03:00.228Z,31.29
2018-07-25T08:03:40.677Z,31.28
2018-07-25T08:04:21.241Z,31.36
2018-07-25T08:05:01.817Z,31.28
2018-07-25T08:05:42.217Z,31.23
2018-07-25T08:06:22.712Z,31.16
2018-07-25T08:07:03.249Z,31.13
2018-07-25T08:07:43.791Z,31.14
2018-07-25T08:08:24.269Z,31.09
2018-07-25T08:09:04.758Z,31.09
2018-07-25T08:09:45.219Z,31.14
2018-07-25T08:10:25.726Z,31.1
2018-07-25T08:11:06.271Z,31.02
2018-07-25T08:11:46.766Z,30.99
2018-07-25T08:12:27.294Z,30.89
2018-07-25T08:13:07.844Z,30.8
2018-07-25T08:13:48.276Z,30.88
2018-07-25T08:14:28.745Z,30.75
2018-07-25T08:15:09.231Z,30.72
2018-07-25T08:15:49.752Z,30.6
2018-07-25T08:16:30.253Z,30.6
2018-07-25T08:17:10.743Z,30.65
2018-07-25T08:17:51.284Z,30.64
2018-07-25T08:18:31.761Z,30.67
2018-07-25T08:19:12.279Z,30.75
2018-07-25T08:19:52.801Z,30.86
2018-07-25T08:20:33.327Z,30.88
2018-07-25T08:21:13.934Z,31.01
2018-07-25T08:21:54.390Z,31.09
2018-07-25T08:22:34.843Z,31.14
2018-07-25T08:23:15.371Z,31.07
2018-07-25T08:23:55.949Z,31.14
2018-07-25T08:24:36.490Z,31.02
2018-07-25T08:25:16.944Z,31.12
2018-07-25T08:25:57.458Z,31.09
2018-07-25T08:26:37.979Z,31.06
2018-07-25T08:27:18.445Z,31.02
2018-07-25T08:27:58.980Z,31.06
2018-07-25T08:28:39.446Z,31.06
2018-07-25T08:29:19.943Z,31.16
2018-07-25T08:30:00.446Z,31.06
2018-07-25T08:30:40.968Z,30.99
2018-07-25T08:31:21.466Z,31.07
2018-07-25T08:32:01.994Z,31.16
2018-07-25T08:32:42.477Z,31.14
2018-07-25T08:33:22.994Z,31.16
2018-07-25T08:34:03.532Z,31.17
2018-07-25T08:34:44.041Z,31.16
2018-07-25T08:35:24.512Z,31.23
2018-07-25T08:36:05.026Z,31.19
2018-07-25T08:36:45.553Z,31.21
2018-07-25T08:37:26.067Z,31.25
2018-07-25T08:38:06.579Z,31.35
2018-07-25T08:38:47.062Z,31.19
2018-07-25T08:39:27.555Z,31.21
2018-07-25T08:40:08.053Z,31.13
2018-07-25T08:40:48.583Z,31.26
2018-07-25T08:41:29.075Z,31.2
2018-07-25T08:42:09.592Z,31.23
2018-07-25T08:42:50.161Z,31.2
2018-07-25T08:43:30.640Z,31.13
2018-07-25T08:44:11.212Z,31.17